Time;durP1;ratioP1;P1;durP2;ratioP2;P2;SDS_P1;SDS_P2;PMS_P1;PMS_P2;Temp;Humidity;BMP_temperature;BMP_pressure;BME280_temperature;BME280_humidity;BME280_pressure;Samples;Min_cycle;Max_cycle;Signal;HPM_P1;HPM_P2
2021/03/20 00:00:40;;;;;;;10.83;4.53;;;;;;;;;;5071604;28;20020;-80
2021/03/20 00:03:05;;;;;;;11.47;4.87;;;;;;;;;;5071826;28;20024;-80
2021/03/20 00:05:31;;;;;;;13.33;5.00;;;;;;;;;;5072101;28;20031;-80
2021/03/20 00:07:56;;;;;;;15.17;5.00;;;;;;;;;;5072045;28;20004;-80
2021/03/20 00:10:22;;;;;;;11.47;4.47;;;;;;;;;;5071601;28;20385;-80
2021/03/20 00:12:48;;;;;;;13.40;5.03;;;;;;;;;;5071696;28;20036;-80
2021/03/20 00:15:14;;;;;;;10.17;5.03;;;;;;;;;;5073177;28;20027;-80
2021/03/20 00:17:40;;;;;;;14.43;5.23;;;;;;;;;;5073124;28;20024;-80
2021/03/20 00:20:06;;;;;;;12.43;5.23;;;;;;;;;;5071864;28;20025;-80
2021/03/20 00:22:31;;;;;;;15.57;5.27;;;;;;;;;;5072943;28;20370;-80
2021/03/20 00:24:56;;;;;;;13.00;4.73;;;;;;;;;;5071763;28;20016;-80
2021/03/20 00:27:21;;;;;;;12.30;5.37;;;;;;;;;;5071297;28;20043;-80
2021/03/20 00:29:47;;;;;;;15.90;6.20;;;;;;;;;;5063258;28;20040;-80
2021/03/20 00:32:12;;;;;;;13.10;5.47;;;;;;;;;;5069013;28;20020;-80
2021/03/20 00:34:38;;;;;;;14.40;5.40;;;;;;;;;;5072942;28;20035;-80
2021/03/20 00:37:03;;;;;;;13.33;5.57;;;;;;;;;;5072799;28;20078;-80
2021/03/20 00:39:28;;;;;;;14.80;5.17;;;;;;;;;;5072899;28;20025;-80
2021/03/20 00:41:53;;;;;;;11.20;5.40;;;;;;;;;;5071313;28;20024;-80
2021/03/20 00:44:18;;;;;;;15.00;5.27;;;;;;;;;;5071332;28;20024;-81
2021/03/20 00:46:43;;;;;;;13.40;5.83;;;;;;;;;;5071340;28;20028;-81
2021/03/20 00:49:09;;;;;;;10.93;5.63;;;;;;;;;;5072608;28;20020;-80
2021/03/20 00:51:34;;;;;;;17.87;6.50;;;;;;;;;;5071435;28;20407;-80
2021/03/20 00:53:59;;;;;;;15.07;6.00;;;;;;;;;;5070839;28;20028;-81
2021/03/20 00:56:24;;;;;;;11.67;5.40;;;;;;;;;;5071241;28;20019;-80
2021/03/20 00:58:50;;;;;;;13.67;6.60;;;;;;;;;;5059945;28;20017;-81
2021/03/20 01:01:17;;;;;;;16.00;5.97;;;;;;;;;;5069597;28;20028;-81
2021/03/20 01:03:42;;;;;;;13.30;5.63;;;;;;;;;;5072607;28;20444;-80
2021/03/20 01:06:12;;;;;;;16.67;5.40;;;;;;;;;;5071275;28;20017;-80
2021/03/20 01:08:37;;;;;;;14.17;5.67;;;;;;;;;;5070862;28;20471;-80
2021/03/20 01:11:03;;;;;;;11.97;5.33;;;;;;;;;;5071144;28;20017;-81
2021/03/20 01:13:28;;;;;;;10.37;5.33;;;;;;;;;;5071023;28;20459;-80
2021/03/20 01:15:53;;;;;;;17.37;6.23;;;;;;;;;;5071291;28;20012;-80
2021/03/20 01:18:19;;;;;;;11.23;6.23;;;;;;;;;;5070629;28;20021;-80
2021/03/20 01:20:44;;;;;;;12.03;5.80;;;;;;;;;;5071001;28;20012;-80
2021/03/20 01:23:10;;;;;;;13.10;6.40;;;;;;;;;;5072351;28;20127;-80
2021/03/20 01:25:35;;;;;;;12.67;6.03;;;;;;;;;;5070747;28;20024;-81
2021/03/20 01:28:01;;;;;;;13.40;6.37;;;;;;;;;;5072400;28;20012;-80
2021/03/20 01:30:28;;;;;;;14.70;6.33;;;;;;;;;;5072175;28;20460;-80
2021/03/20 01:32:54;;;;;;;18.13;6.43;;;;;;;;;;5072307;28;20019;-80
2021/03/20 01:35:19;;;;;;;17.33;6.20;;;;;;;;;;5072070;28;20447;-80
2021/03/20 01:37:44;;;;;;;15.10;5.83;;;;;;;;;;5070817;28;20025;-80
2021/03/20 01:40:10;;;;;;;10.83;5.73;;;;;;;;;;5070824;28;20032;-80
2021/03/20 01:42:40;;;;;;;12.20;6.27;;;;;;;;;;5070767;28;20052;-80
2021/03/20 01:45:14;;;;;;;14.77;6.20;;;;;;;;;;5072007;28;20032;-80
2021/03/20 01:47:45;;;;;;;18.97;6.47;;;;;;;;;;5071905;28;20008;-80
2021/03/20 01:50:12;;;;;;;10.87;5.70;;;;;;;;;;5070841;28;20032;-80
2021/03/20 01:52:37;;;;;;;15.87;6.57;;;;;;;;;;5070800;28;20027;-80
2021/03/20 01:55:06;;;;;;;15.83;6.27;;;;;;;;;;5070769;28;20036;-81
2021/03/20 01:57:35;;;;;;;13.33;6.30;;;;;;;;;;5070434;28;20025;-80
2021/03/20 02:00:05;;;;;;;12.83;6.93;;;;;;;;;;5071771;28;20541;-81
2021/03/20 02:02:30;;;;;;;14.07;7.30;;;;;;;;;;5070742;28;20035;-80
2021/03/20 02:04:55;;;;;;;18.30;7.07;;;;;;;;;;5070866;28;20375;-81
2021/03/20 02:07:20;;;;;;;17.57;8.30;;;;;;;;;;5071328;28;20027;-79
2021/03/20 02:09:46;;;;;;;32.33;13.20;;;;;;;;;;5074632;28;20024;-80
2021/03/20 02:12:16;;;;;;;34.37;14.33;;;;;;;;;;5074905;28;20123;-81
2021/03/20 02:15:01;;;;;;;24.90;11.67;;;;;;;;;;5075413;28;20035;-80
2021/03/20 02:17:46;;;;;;;27.07;11.90;;;;;;;;;;5074248;28;20016;-80
2021/03/20 02:20:23;;;;;;;20.30;9.43;;;;;;;;;;5074103;28;20009;-80
2021/03/20 02:23:07;;;;;;;22.00;9.40;;;;;;;;;;5074255;28;20025;-80
2021/03/20 02:25:45;;;;;;;21.37;10.43;;;;;;;;;;5075083;28;20029;-80
2021/03/20 02:28:26;;;;;;;22.67;10.00;;;;;;;;;;5074018;28;20048;-81
2021/03/20 02:31:11;;;;;;;17.03;8.97;;;;;;;;;;5057785;28;20027;-80
2021/03/20 02:33:48;;;;;;;22.93;9.63;;;;;;;;;;5069770;28;20020;-80
2021/03/20 02:36:29;;;;;;;19.73;9.33;;;;;;;;;;5073604;28;20502;-80
2021/03/20 02:39:16;;;;;;;16.33;9.40;;;;;;;;;;5073476;28;20027;-80
2021/03/20 02:41:48;;;;;;;21.17;9.53;;;;;;;;;;5073553;28;20468;-80
2021/03/20 02:44:21;;;;;;;18.63;9.55;;;;;;;;;;5073464;28;20042;-80
2021/03/20 02:46:50;;;;;;;18.37;10.40;;;;;;;;;;5073409;28;20543;-80
2021/03/20 02:49:21;;;;;;;17.50;9.47;;;;;;;;;;5073472;28;20440;-80
2021/03/20 02:52:12;;;;;;;18.73;9.70;;;;;;;;;;5074415;28;20070;-80
2021/03/20 02:54:45;;;;;;;25.90;10.60;;;;;;;;;;5057855;28;20040;-80
2021/03/20 02:57:23;;;;;;;19.07;9.47;;;;;;;;;;5074592;28;20095;-80
2021/03/20 02:59:55;;;;;;;17.90;9.93;;;;;;;;;;5074617;28;20105;-80
2021/03/20 03:02:21;;;;;;;18.80;8.73;;;;;;;;;;5073214;28;20519;-80
2021/03/20 03:04:49;;;;;;;18.13;8.63;;;;;;;;;;5072777;28;20123;-80
2021/03/20 03:07:18;;;;;;;16.47;8.27;;;;;;;;;;5074116;28;20433;-80
2021/03/20 03:09:51;;;;;;;17.17;8.00;;;;;;;;;;5074233;28;20040;-80
2021/03/20 03:12:21;;;;;;;20.87;8.73;;;;;;;;;;5074140;28;20040;-81
2021/03/20 03:14:46;;;;;;;17.60;8.60;;;;;;;;;;5072999;28;20112;-80
2021/03/20 03:17:13;;;;;;;17.13;9.07;;;;;;;;;;5073031;28;20056;-80
2021/03/20 03:19:51;;;;;;;15.53;8.03;;;;;;;;;;5072783;28;20162;-81
2021/03/20 03:22:24;;;;;;;20.53;9.00;;;;;;;;;;5072707;28;20021;-80
2021/03/20 03:24:50;;;;;;;17.40;9.13;;;;;;;;;;5074037;28;20044;-80
2021/03/20 03:27:16;;;;;;;16.40;8.57;;;;;;;;;;5074083;28;20088;-80
2021/03/20 03:29:42;;;;;;;16.43;8.60;;;;;;;;;;5072777;28;20036;-80
2021/03/20 03:32:10;;;;;;;16.90;8.20;;;;;;;;;;5072726;28;20029;-80
2021/03/20 03:34:44;;;;;;;17.43;8.50;;;;;;;;;;5072596;28;20025;-80
2021/03/20 03:37:29;;;;;;;26.10;8.77;;;;;;;;;;5072462;28;20657;-80
2021/03/20 03:39:56;;;;;;;12.47;7.73;;;;;;;;;;5071966;28;20541;-80
2021/03/20 03:42:22;;;;;;;18.80;8.63;;;;;;;;;;5073812;28;20024;-80
2021/03/20 03:44:48;;;;;;;14.67;8.73;;;;;;;;;;5072150;28;20365;-81
2021/03/20 03:47:16;;;;;;;15.13;9.70;;;;;;;;;;5072071;28;20110;-80
2021/03/20 03:49:41;;;;;;;19.33;9.80;;;;;;;;;;5072278;28;20017;-80
2021/03/20 03:52:06;;;;;;;21.93;10.83;;;;;;;;;;5073134;28;20110;-80
2021/03/20 03:54:32;;;;;;;19.17;10.47;;;;;;;;;;5072072;28;20028;-81
2021/03/20 03:57:16;;;;;;;24.23;11.63;;;;;;;;;;5071863;28;20486;-80
2021/03/20 03:59:47;;;;;;;24.87;11.70;;;;;;;;;;5071913;28;20033;-80
2021/03/20 04:02:21;;;;;;;18.23;10.57;;;;;;;;;;5071798;28;20016;-81
2021/03/20 04:05:09;;;;;;;24.67;10.50;;;;;;;;;;5072098;28;20036;-80
2021/03/20 04:07:44;;;;;;;19.33;9.23;;;;;;;;;;5071259;28;20471;-80
2021/03/20 04:10:10;;;;;;;23.07;10.70;;;;;;;;;;5073243;28;20090;-80
2021/03/20 04:12:35;;;;;;;17.43;9.83;;;;;;;;;;5071530;28;20028;-80
2021/03/20 04:15:03;;;;;;;14.95;9.52;;;;;;;;;;5071755;28;20040;-80
2021/03/20 04:17:49;;;;;;;23.00;10.10;;;;;;;;;;5071500;28;20040;-80
2021/03/20 04:20:19;;;;;;;20.63;11.00;;;;;;;;;;5073383;28;20089;-80
2021/03/20 04:23:03;;;;;;;24.50;11.20;;;;;;;;;;5071565;28;20020;-81
2021/03/20 04:25:37;;;;;;;18.73;9.33;;;;;;;;;;5073974;28;20021;-80
2021/03/20 04:28:28;;;;;;;19.53;9.33;;;;;;;;;;5071183;28;20498;-80
2021/03/20 04:31:00;;;;;;;16.80;8.93;;;;;;;;;;5072910;28;20017;-80
2021/03/20 04:33:29;;;;;;;23.50;10.00;;;;;;;;;;5071463;28;20039;-80
2021/03/20 04:35:58;;;;;;;24.10;9.77;;;;;;;;;;5072853;28;20027;-80
2021/03/20 04:38:25;;;;;;;18.53;9.47;;;;;;;;;;5071344;28;20021;-80
2021/03/20 04:40:55;;;;;;;17.63;8.83;;;;;;;;;;5071208;28;20377;-80
2021/03/20 04:43:24;;;;;;;17.83;9.03;;;;;;;;;;5072608;28;20103;-81
2021/03/20 04:46:07;;;;;;;15.40;8.50;;;;;;;;;;5072766;28;20020;-80
2021/03/20 04:48:37;;;;;;;20.67;9.63;;;;;;;;;;5071097;28;20016;-80
2021/03/20 04:51:06;;;;;;;17.87;9.73;;;;;;;;;;5071400;28;20033;-80
2021/03/20 04:53:31;;;;;;;24.60;10.97;;;;;;;;;;5071079;28;20100;-80
2021/03/20 04:56:01;;;;;;;20.63;11.20;;;;;;;;;;5071299;28;20051;-80
2021/03/20 04:58:26;;;;;;;17.23;10.40;;;;;;;;;;5071202;28;20468;-80
2021/03/20 05:00:54;;;;;;;15.07;10.00;;;;;;;;;;5071987;28;20016;-80
2021/03/20 05:03:25;;;;;;;21.40;9.67;;;;;;;;;;5072599;28;20035;-80
2021/03/20 05:06:02;;;;;;;16.23;9.10;;;;;;;;;;5071007;28;20021;-80
2021/03/20 05:08:27;;;;;;;19.97;10.43;;;;;;;;;;5063658;28;20360;-80
2021/03/20 05:10:55;;;;;;;21.97;10.40;;;;;;;;;;5070952;28;20019;-80
2021/03/20 05:13:32;;;;;;;22.57;10.33;;;;;;;;;;5072222;28;20047;-80
2021/03/20 05:16:05;;;;;;;16.67;10.13;;;;;;;;;;5071021;28;20042;-80
2021/03/20 05:18:30;;;;;;;18.50;10.83;;;;;;;;;;5071147;28;20076;-80
2021/03/20 05:20:55;;;;;;;20.77;9.63;;;;;;;;;;5070942;28;20021;-80
2021/03/20 05:23:20;;;;;;;19.87;9.60;;;;;;;;;;5070864;28;20028;-81
2021/03/20 05:25:45;;;;;;;20.27;10.57;;;;;;;;;;5070765;28;20016;-80
2021/03/20 05:28:11;;;;;;;20.10;10.23;;;;;;;;;;5070891;28;20063;-80
2021/03/20 05:30:36;;;;;;;19.60;10.10;;;;;;;;;;5072270;28;20101;-80
2021/03/20 05:33:02;;;;;;;18.50;10.57;;;;;;;;;;5072273;28;20044;-80
2021/03/20 05:35:27;;;;;;;18.33;10.50;;;;;;;;;;5070738;28;20055;-80
2021/03/20 05:37:53;;;;;;;20.03;11.13;;;;;;;;;;5072207;28;20044;-80
2021/03/20 05:40:21;;;;;;;19.63;11.00;;;;;;;;;;5071571;28;20013;-80
2021/03/20 05:42:54;;;;;;;22.20;10.50;;;;;;;;;;5076042;28;20056;-81
2021/03/20 05:45:25;;;;;;;20.73;10.87;;;;;;;;;;5074634;28;20108;-80
2021/03/20 05:47:51;;;;;;;21.83;10.73;;;;;;;;;;5074574;28;20031;-80
2021/03/20 05:50:32;;;;;;;23.30;10.97;;;;;;;;;;5075718;28;20024;-80
2021/03/20 05:53:01;;;;;;;21.30;11.60;;;;;;;;;;5074588;28;20452;-80
2021/03/20 05:55:27;;;;;;;20.20;11.20;;;;;;;;;;5073934;28;20025;-80
2021/03/20 05:58:11;;;;;;;19.67;10.77;;;;;;;;;;5074312;28;20023;-80
2021/03/20 06:00:36;;;;;;;22.80;12.03;;;;;;;;;;5073894;28;20021;-80
2021/03/20 06:03:07;;;;;;;23.63;12.07;;;;;;;;;;5073912;28;20043;-80
2021/03/20 06:05:51;;;;;;;20.43;11.37;;;;;;;;;;5073830;28;20104;-80
2021/03/20 06:08:25;;;;;;;24.00;12.80;;;;;;;;;;5075404;28;20016;-80
2021/03/20 06:10:53;;;;;;;23.23;12.27;;;;;;;;;;5073706;28;20396;-80
2021/03/20 06:13:24;;;;;;;20.53;11.77;;;;;;;;;;5073730;28;20484;-80
2021/03/20 06:16:05;;;;;;;19.93;12.40;;;;;;;;;;5073883;28;20044;-80
2021/03/20 06:18:48;;;;;;;24.13;12.80;;;;;;;;;;5056426;28;20032;-80
2021/03/20 06:21:13;;;;;;;24.37;13.13;;;;;;;;;;5067835;28;20024;-80
2021/03/20 06:23:47;;;;;;;20.87;12.70;;;;;;;;;;5073191;28;20460;-80
2021/03/20 06:26:20;;;;;;;20.23;12.07;;;;;;;;;;5073823;28;20017;-80
2021/03/20 06:28:49;;;;;;;21.57;11.57;;;;;;;;;;5056862;28;20013;-80
2021/03/20 06:31:20;;;;;;;18.03;11.20;;;;;;;;;;5066358;28;20021;-80
2021/03/20 06:33:47;;;;;;;22.20;10.63;;;;;;;;;;5073453;28;20380;-80
2021/03/20 06:36:22;;;;;;;18.67;11.30;;;;;;;;;;5073551;28;20107;-80
2021/03/20 06:38:56;;;;;;;20.40;11.63;;;;;;;;;;5073411;28;20004;-80
2021/03/20 06:41:21;;;;;;;25.43;11.93;;;;;;;;;;5073429;28;20098;-80
2021/03/20 06:43:52;;;;;;;25.42;12.68;;;;;;;;;;5073318;28;20024;-80
2021/03/20 06:46:18;;;;;;;20.40;11.37;;;;;;;;;;5073271;28;20016;-80
2021/03/20 06:48:44;;;;;;;20.90;11.87;;;;;;;;;;5074494;28;20058;-80
2021/03/20 06:51:10;;;;;;;22.93;12.67;;;;;;;;;;5073146;28;20044;-80
2021/03/20 06:53:39;;;;;;;23.50;12.83;;;;;;;;;;5072943;28;20016;-80
2021/03/20 06:56:06;;;;;;;22.23;11.43;;;;;;;;;;5074853;28;20372;-80
2021/03/20 06:58:33;;;;;;;18.20;11.83;;;;;;;;;;5073208;28;20024;-80
2021/03/20 07:01:04;;;;;;;22.57;12.90;;;;;;;;;;5072914;28;20043;-80
2021/03/20 07:03:48;;;;;;;19.20;11.97;;;;;;;;;;5073302;28;20468;-80
2021/03/20 07:06:34;;;;;;;24.30;12.63;;;;;;;;;;5073003;28;20028;-80
2021/03/20 07:09:00;;;;;;;37.20;17.93;;;;;;;;;;5072899;28;20425;-81
2021/03/20 07:11:26;;;;;;;26.73;14.67;;;;;;;;;;5073932;28;20040;-81
2021/03/20 07:13:55;;;;;;;30.70;13.00;;;;;;;;;;5073089;28;20025;-81
2021/03/20 07:16:21;;;;;;;27.50;13.53;;;;;;;;;;5072828;28;20033;-81
2021/03/20 07:18:49;;;;;;;24.03;12.63;;;;;;;;;;5072986;28;20040;-81
2021/03/20 07:21:21;;;;;;;24.23;12.40;;;;;;;;;;5072752;28;20034;-80
2021/03/20 07:23:53;;;;;;;26.87;12.23;;;;;;;;;;5072910;28;20376;-81
2021/03/20 07:26:18;;;;;;;21.85;12.82;;;;;;;;;;5072820;28;20099;-80
2021/03/20 07:28:58;;;;;;;20.27;11.83;;;;;;;;;;5072967;28;20047;-81
2021/03/20 07:31:24;;;;;;;23.00;12.00;;;;;;;;;;5072499;28;20361;-81
2021/03/20 07:33:50;;;;;;;17.10;10.20;;;;;;;;;;5073959;28;20023;-80
2021/03/20 07:36:18;;;;;;;17.67;9.53;;;;;;;;;;5072586;28;20078;-82
2021/03/20 07:38:44;;;;;;;13.17;8.03;;;;;;;;;;5073844;28;20423;-81
2021/03/20 07:41:15;;;;;;;15.70;8.40;;;;;;;;;;5072710;28;20024;-81
2021/03/20 07:43:40;;;;;;;15.20;9.37;;;;;;;;;;5073817;28;20029;-81
2021/03/20 07:46:16;;;;;;;17.23;9.47;;;;;;;;;;5072258;28;20017;-81
2021/03/20 07:48:42;;;;;;;19.97;8.67;;;;;;;;;;5072307;28;20024;-81
2021/03/20 07:51:13;;;;;;;13.77;8.47;;;;;;;;;;5072321;28;20020;-81
2021/03/20 07:53:43;;;;;;;16.03;8.20;;;;;;;;;;5072492;28;20020;-81
2021/03/20 07:56:12;;;;;;;15.27;8.40;;;;;;;;;;5071596;28;20021;-81
2021/03/20 07:58:42;;;;;;;13.20;7.83;;;;;;;;;;5072797;28;20020;-81
2021/03/20 08:01:11;;;;;;;13.80;7.20;;;;;;;;;;5073384;28;20028;-81
2021/03/20 08:03:54;;;;;;;16.53;8.40;;;;;;;;;;5071006;28;20043;-81
2021/03/20 08:06:24;;;;;;;15.80;7.23;;;;;;;;;;5067518;28;20028;-81
2021/03/20 08:09:08;;;;;;;15.10;7.53;;;;;;;;;;5071266;28;20372;-81
2021/03/20 08:11:33;;;;;;;11.60;6.47;;;;;;;;;;5070005;28;20028;-81
2021/03/20 08:14:09;;;;;;;10.63;5.70;;;;;;;;;;5071046;28;20024;-81
2021/03/20 08:16:34;;;;;;;13.13;6.60;;;;;;;;;;5072768;28;20150;-81
2021/03/20 08:18:59;;;;;;;13.70;7.00;;;;;;;;;;5072826;28;20463;-81
2021/03/20 08:21:24;;;;;;;10.43;5.83;;;;;;;;;;5071665;28;20035;-81
2021/03/20 08:23:50;;;;;;;12.60;6.70;;;;;;;;;;5072897;28;20027;-81
2021/03/20 08:26:27;;;;;;;10.63;5.07;;;;;;;;;;5072742;28;20024;-81
2021/03/20 08:28:57;;;;;;;8.77;4.63;;;;;;;;;;5069330;28;20016;-81
2021/03/20 08:31:29;;;;;;;7.57;4.73;;;;;;;;;;5071647;28;20069;-81
2021/03/20 08:34:09;;;;;;;7.95;4.28;;;;;;;;;;5092025;28;20541;-81
2021/03/20 08:36:53;;;;;;;8.97;4.43;;;;;;;;;;5065271;28;20107;-81
2021/03/20 08:39:25;;;;;;;6.90;3.77;;;;;;;;;;5070949;28;20025;-82
2021/03/20 08:41:53;;;;;;;7.67;3.37;;;;;;;;;;5070997;28;20178;-81
2021/03/20 08:44:28;;;;;;;6.37;3.50;;;;;;;;;;5071567;28;20021;-81
2021/03/20 08:46:53;;;;;;;6.00;3.80;;;;;;;;;;5072755;28;20084;-81
2021/03/20 08:49:37;;;;;;;7.90;3.63;;;;;;;;;;5071287;28;20420;-81
2021/03/20 08:52:11;;;;;;;10.40;3.27;;;;;;;;;;5072608;28;20020;-81
2021/03/20 08:54:55;;;;;;;7.30;3.10;;;;;;;;;;5071406;28;20024;-81
2021/03/20 08:57:20;;;;;;;11.40;4.30;;;;;;;;;;5071276;28;20024;-81
2021/03/20 08:59:50;;;;;;;5.23;3.40;;;;;;;;;;5071363;28;20498;-81
2021/03/20 09:02:15;;;;;;;5.07;3.10;;;;;;;;;;5070916;28;20169;-81
2021/03/20 09:04:40;;;;;;;5.07;3.10;;;;;;;;;;5071348;28;20480;-81
2021/03/20 09:07:08;;;;;;;9.70;3.47;;;;;;;;;;5071372;28;20024;-81
2021/03/20 09:09:39;;;;;;;6.70;2.83;;;;;;;;;;5072495;28;20047;-81
2021/03/20 09:12:04;;;;;;;7.30;3.10;;;;;;;;;;5072444;28;20028;-81
2021/03/20 09:14:33;;;;;;;6.07;3.70;;;;;;;;;;5073561;28;20095;-81
2021/03/20 09:17:00;;;;;;;5.80;3.10;;;;;;;;;;5075231;28;20021;-81
2021/03/20 09:19:27;;;;;;;5.60;3.00;;;;;;;;;;5075419;28;20025;-81
2021/03/20 09:21:54;;;;;;;10.77;2.57;;;;;;;;;;5076366;28;20016;-81
2021/03/20 09:24:21;;;;;;;5.93;2.83;;;;;;;;;;5075319;28;20375;-81
2021/03/20 09:26:48;;;;;;;7.87;3.10;;;;;;;;;;5076520;28;20032;-81
2021/03/20 09:29:14;;;;;;;5.10;2.93;;;;;;;;;;5075552;28;20016;-81
2021/03/20 09:31:54;;;;;;;4.90;3.10;;;;;;;;;;5075067;28;20043;-81
2021/03/20 09:34:34;;;;;;;6.57;2.87;;;;;;;;;;5076477;28;20066;-81
2021/03/20 09:37:00;;;;;;;6.90;3.00;;;;;;;;;;5076247;28;20103;-81
2021/03/20 09:39:37;;;;;;;5.67;1.97;;;;;;;;;;5076460;28;20020;-81
2021/03/20 09:42:03;;;;;;;3.80;1.90;;;;;;;;;;5062056;28;20370;-81
2021/03/20 09:44:29;;;;;;;4.00;2.57;;;;;;;;;;5074357;28;20123;-81
2021/03/20 09:46:57;;;;;;;3.43;2.20;;;;;;;;;;5074944;28;20020;-81
2021/03/20 09:49:22;;;;;;;5.13;2.43;;;;;;;;;;5074739;28;20044;-81
2021/03/20 09:51:58;;;;;;;2.60;1.70;;;;;;;;;;5074722;28;20035;-82
2021/03/20 09:54:31;;;;;;;3.17;1.80;;;;;;;;;;5058819;28;20029;-81
2021/03/20 09:57:05;;;;;;;3.70;2.17;;;;;;;;;;5068972;28;20471;-81
2021/03/20 09:59:32;;;;;;;3.67;1.93;;;;;;;;;;5075001;28;20058;-81
2021/03/20 10:01:59;;;;;;;5.22;2.22;;;;;;;;;;5075816;28;20024;-81
2021/03/20 10:04:43;;;;;;;3.83;2.27;;;;;;;;;;5074381;28;20455;-81
2021/03/20 10:07:20;;;;;;;4.40;2.67;;;;;;;;;;5075656;28;20013;-81
2021/03/20 10:10:00;;;;;;;5.80;2.17;;;;;;;;;;5074395;28;20486;-81
2021/03/20 10:12:25;;;;;;;5.07;2.57;;;;;;;;;;5074154;28;20395;-81
2021/03/20 10:15:04;;;;;;;5.27;2.40;;;;;;;;;;5073875;28;20024;-82
2021/03/20 10:17:31;;;;;;;3.07;2.03;;;;;;;;;;5074273;28;20017;-81
2021/03/20 10:20:08;;;;;;;3.85;2.10;;;;;;;;;;5074234;28;20317;-81
2021/03/20 10:22:36;;;;;;;2.83;1.70;;;;;;;;;;5074032;28;20020;-81
2021/03/20 10:25:04;;;;;;;4.65;2.40;;;;;;;;;;5075222;28;20013;-81
2021/03/20 10:27:31;;;;;;;3.15;2.17;;;;;;;;;;5073321;28;20486;-81
2021/03/20 10:30:10;;;;;;;5.07;2.10;;;;;;;;;;5073824;28;20045;-81
2021/03/20 10:32:35;;;;;;;4.72;2.53;;;;;;;;;;5075392;28;20024;-81
2021/03/20 10:35:05;;;;;;;5.22;2.67;;;;;;;;;;5073693;28;20020;-81
2021/03/20 10:37:32;;;;;;;5.32;2.10;;;;;;;;;;5073550;28;20037;-81
2021/03/20 10:40:19;;;;;;;6.97;2.20;;;;;;;;;;5073237;28;20051;-82
2021/03/20 10:42:46;;;;;;;3.30;2.25;;;;;;;;;;5073721;28;20052;-81
2021/03/20 10:45:16;;;;;;;3.10;2.10;;;;;;;;;;5074924;28;20025;-81
2021/03/20 10:47:43;;;;;;;3.42;2.20;;;;;;;;;;5074933;28;20103;-81
2021/03/20 10:50:14;;;;;;;4.00;2.10;;;;;;;;;;5073492;28;20032;-81
2021/03/20 10:52:40;;;;;;;4.80;2.77;;;;;;;;;;5073742;28;20476;-81
2021/03/20 10:55:23;;;;;;;4.03;2.05;;;;;;;;;;5073567;28;20070;-81
2021/03/20 10:57:49;;;;;;;5.57;2.38;;;;;;;;;;5061073;28;20028;-81
2021/03/20 11:00:37;;;;;;;3.92;1.95;;;;;;;;;;5073544;28;20024;-81
2021/03/20 11:03:14;;;;;;;4.30;2.80;;;;;;;;;;5070624;28;20051;-81
2021/03/20 11:05:41;;;;;;;4.63;2.70;;;;;;;;;;5073241;28;20104;-81
2021/03/20 11:08:18;;;;;;;7.00;2.80;;;;;;;;;;5073028;28;20017;-81
2021/03/20 11:10:44;;;;;;;4.90;3.00;;;;;;;;;;5069003;28;20032;-82
2021/03/20 11:13:33;;;;;;;4.90;2.83;;;;;;;;;;5072826;28;20042;-81
2021/03/20 11:16:04;;;;;;;7.87;2.77;;;;;;;;;;5070063;28;20064;-81
2021/03/20 11:18:30;;;;;;;6.17;2.80;;;;;;;;;;5072988;28;20020;-81
2021/03/20 11:20:55;;;;;;;5.38;3.05;;;;;;;;;;5072762;28;20054;-81
2021/03/20 11:23:29;;;;;;;4.93;2.70;;;;;;;;;;5074136;28;20046;-81
2021/03/20 11:25:54;;;;;;;5.45;3.20;;;;;;;;;;5072960;28;20017;-82
2021/03/20 11:28:28;;;;;;;4.47;2.58;;;;;;;;;;5072756;28;20087;-82
2021/03/20 11:30:54;;;;;;;4.53;2.30;;;;;;;;;;5072899;28;20031;-82
2021/03/20 11:33:21;;;;;;;7.00;3.00;;;;;;;;;;5072598;28;20020;-82
2021/03/20 11:35:49;;;;;;;6.10;2.92;;;;;;;;;;5072801;28;20067;-81
2021/03/20 11:38:15;;;;;;;4.50;3.20;;;;;;;;;;5071243;28;20024;-81
2021/03/20 11:40:42;;;;;;;6.33;3.20;;;;;;;;;;5073261;28;20020;-81
2021/03/20 11:43:13;;;;;;;5.63;3.13;;;;;;;;;;5066293;28;20103;-81
2021/03/20 11:45:40;;;;;;;11.10;2.60;;;;;;;;;;5073140;28;20038;-81
2021/03/20 11:48:14;;;;;;;6.60;3.30;;;;;;;;;;5073315;28;20487;-80
2021/03/20 11:50:40;;;;;;;6.37;3.07;;;;;;;;;;5071653;28;20023;-81
2021/03/20 11:53:11;;;;;;;5.73;3.27;;;;;;;;;;5072448;28;20021;-81
2021/03/20 11:55:38;;;;;;;5.67;2.90;;;;;;;;;;5071816;28;20058;-81
2021/03/20 11:58:05;;;;;;;4.60;2.80;;;;;;;;;;5072146;28;20034;-81
2021/03/20 12:00:30;;;;;;;5.53;3.40;;;;;;;;;;5071973;28;20044;-81
2021/03/20 12:02:56;;;;;;;6.00;3.00;;;;;;;;;;5073111;28;20044;-80
2021/03/20 12:05:29;;;;;;;6.17;2.70;;;;;;;;;;5072096;28;20016;-81
2021/03/20 12:08:13;;;;;;;3.78;2.30;;;;;;;;;;5055435;28;20023;-81
2021/03/20 12:10:52;;;;;;;5.80;2.95;;;;;;;;;;5066777;28;20028;-81
2021/03/20 12:13:36;;;;;;;4.72;2.70;;;;;;;;;;5071369;28;20082;-81
2021/03/20 12:16:01;;;;;;;6.60;2.80;;;;;;;;;;5071743;28;20427;-80
2021/03/20 12:18:26;;;;;;;4.63;3.13;;;;;;;;;;5071566;28;20020;-81
2021/03/20 12:20:51;;;;;;;4.70;2.90;;;;;;;;;;5071658;28;20078;-81
2021/03/20 12:23:21;;;;;;;5.82;2.80;;;;;;;;;;5072831;28;20073;-81
2021/03/20 12:25:49;;;;;;;4.45;2.08;;;;;;;;;;5074988;28;20024;-82
2021/03/20 12:28:33;;;;;;;8.80;2.90;;;;;;;;;;5068043;28;20046;-82
2021/03/20 12:31:00;;;;;;;4.93;3.42;;;;;;;;;;5071312;28;20016;-82
2021/03/20 12:33:26;;;;;;;5.90;3.42;;;;;;;;;;5072168;28;20146;-82
2021/03/20 12:35:52;;;;;;;5.30;3.40;;;;;;;;;;5069350;28;20432;-82
2021/03/20 12:38:23;;;;;;;7.70;2.97;;;;;;;;;;5072142;28;20052;-82
2021/03/20 12:40:51;;;;;;;9.38;3.33;;;;;;;;;;5071085;28;20047;-82
2021/03/20 12:43:18;;;;;;;5.32;3.42;;;;;;;;;;5070901;28;20016;-82
2021/03/20 12:45:43;;;;;;;4.63;2.58;;;;;;;;;;5072846;28;20020;-82
2021/03/20 12:48:09;;;;;;;4.95;2.78;;;;;;;;;;5071497;28;20017;-82
2021/03/20 12:50:34;;;;;;;5.00;2.72;;;;;;;;;;5072233;28;20047;-82
2021/03/20 12:52:59;;;;;;;3.40;2.58;;;;;;;;;;5071228;28;20070;-82
2021/03/20 12:55:25;;;;;;;4.57;2.88;;;;;;;;;;5072502;28;20420;-82
2021/03/20 12:57:50;;;;;;;3.70;2.20;;;;;;;;;;5072503;28;20023;-82
2021/03/20 13:00:16;;;;;;;8.23;3.50;;;;;;;;;;5071346;28;20441;-82
2021/03/20 13:02:41;;;;;;;4.15;2.47;;;;;;;;;;5072659;28;20448;-82
2021/03/20 13:05:06;;;;;;;4.55;3.03;;;;;;;;;;5071257;28;20047;-82
2021/03/20 13:07:32;;;;;;;6.18;2.65;;;;;;;;;;5070404;28;20024;-82
2021/03/20 13:09:57;;;;;;;8.13;2.97;;;;;;;;;;5070780;28;20059;-82
2021/03/20 13:12:22;;;;;;;5.53;3.00;;;;;;;;;;5070100;28;20024;-82
2021/03/20 13:14:48;;;;;;;4.05;2.15;;;;;;;;;;5068010;28;20016;-83
2021/03/20 13:17:13;;;;;;;3.85;2.22;;;;;;;;;;5070113;28;20490;-82
2021/03/20 13:19:38;;;;;;;3.30;2.30;;;;;;;;;;5071932;28;20082;-82
2021/03/20 13:22:04;;;;;;;3.97;2.90;;;;;;;;;;5067937;28;20021;-82
2021/03/20 13:24:29;;;;;;;5.45;3.00;;;;;;;;;;5071003;28;20490;-81
2021/03/20 13:26:55;;;;;;;6.93;2.78;;;;;;;;;;5069790;28;20016;-82
2021/03/20 13:29:20;;;;;;;4.10;2.92;;;;;;;;;;5071220;28;20021;-82
2021/03/20 13:31:45;;;;;;;6.32;2.85;;;;;;;;;;5072182;28;20055;-82
2021/03/20 13:34:11;;;;;;;4.88;3.10;;;;;;;;;;5071606;28;20522;-82
2021/03/20 13:36:37;;;;;;;4.88;3.15;;;;;;;;;;5069373;28;20021;-81
2021/03/20 13:39:03;;;;;;;5.68;2.72;;;;;;;;;;5069947;28;20400;-81
2021/03/20 13:41:28;;;;;;;6.05;2.50;;;;;;;;;;5070558;28;20023;-81
2021/03/20 13:43:53;;;;;;;4.80;2.70;;;;;;;;;;5069947;28;20392;-82
2021/03/20 13:46:19;;;;;;;3.33;2.30;;;;;;;;;;5070077;28;20100;-82
2021/03/20 13:48:44;;;;;;;7.97;2.65;;;;;;;;;;5070079;28;20111;-82
2021/03/20 13:51:10;;;;;;;3.88;2.63;;;;;;;;;;5070809;28;20028;-82
2021/03/20 13:53:36;;;;;;;5.05;3.03;;;;;;;;;;5069758;28;20545;-82
2021/03/20 13:56:02;;;;;;;4.22;2.78;;;;;;;;;;5070254;28;20020;-82
2021/03/20 13:58:28;;;;;;;6.45;2.97;;;;;;;;;;5070429;28;20036;-81
2021/03/20 14:00:54;;;;;;;11.23;3.13;;;;;;;;;;5069986;28;20472;-82
2021/03/20 14:03:19;;;;;;;6.28;3.13;;;;;;;;;;5073134;28;20026;-82
2021/03/20 14:05:45;;;;;;;8.38;3.30;;;;;;;;;;5097544;28;20460;-82
2021/03/20 14:08:10;;;;;;;9.65;3.40;;;;;;;;;;5073852;28;20013;-82
2021/03/20 14:10:38;;;;;;;11.52;3.85;;;;;;;;;;5074195;28;20021;-82
2021/03/20 14:13:03;;;;;;;4.57;3.15;;;;;;;;;;5075198;28;20369;-81
2021/03/20 14:15:29;;;;;;;4.93;2.92;;;;;;;;;;5073600;28;20027;-82
2021/03/20 14:17:54;;;;;;;9.35;4.13;;;;;;;;;;5073998;28;20020;-82
2021/03/20 14:20:25;;;;;;;11.88;3.55;;;;;;;;;;5074156;28;20030;-82
2021/03/20 14:22:51;;;;;;;6.50;3.90;;;;;;;;;;5075134;28;20024;-82
2021/03/20 14:25:16;;;;;;;9.02;3.55;;;;;;;;;;5073746;28;20035;-81
2021/03/20 14:27:42;;;;;;;6.50;3.75;;;;;;;;;;5072582;28;20543;-82
2021/03/20 14:30:07;;;;;;;5.35;3.33;;;;;;;;;;5072489;28;20021;-81
2021/03/20 14:32:32;;;;;;;3.92;2.70;;;;;;;;;;5074106;28;20021;-82
2021/03/20 14:34:58;;;;;;;5.45;3.17;;;;;;;;;;5074395;28;20035;-82
2021/03/20 14:37:23;;;;;;;7.03;3.58;;;;;;;;;;5072410;28;20387;-81
2021/03/20 14:39:48;;;;;;;6.10;3.92;;;;;;;;;;5072975;28;20031;-82
2021/03/20 14:42:13;;;;;;;4.05;2.67;;;;;;;;;;5072304;28;20021;-82
2021/03/20 14:44:39;;;;;;;5.43;3.05;;;;;;;;;;5073189;28;20024;-82
2021/03/20 14:47:04;;;;;;;3.90;2.97;;;;;;;;;;5073313;28;20025;-82